Time;durP1;ratioP1;P1;durP2;ratioP2;P2;SDS_P1;SDS_P2;PMS_P1;PMS_P2;Temp;Humidity;BMP_temperature;BMP_pressure;BME280_temperature;BME280_humidity;BME280_pressure;Samples;Min_cycle;Max_cycle;Signal;HPM_P1;HPM_P2
2023/08/06 00:00:45;;;;;;;0.00;0.00;;;;;;;16.85;64.97;101226.66;7351670;19;20011;-58
2023/08/06 00:03:10;;;;;;;0.00;0.00;;;;;;;16.65;65.63;101199.34;7352610;19;20046;-56
2023/08/06 00:05:36;;;;;;;0.05;0.05;;;;;;;16.75;65.32;101224.47;7350326;19;20014;-57
2023/08/06 00:08:02;;;;;;;0.00;0.00;;;;;;;16.72;65.52;101227.22;7353150;19;20030;-55
2023/08/06 00:10:27;;;;;;;0.00;0.00;;;;;;;16.65;65.85;101223.94;7354182;19;20002;-56
2023/08/06 00:12:53;;;;;;;0.00;0.00;;;;;;;16.63;65.25;101238.97;7349704;19;20021;-57
2023/08/06 00:15:18;;;;;;;0.00;0.00;;;;;;;16.58;65.07;101233.88;7353320;19;20811;-57
2023/08/06 00:17:44;;;;;;;0.00;0.00;;;;;;;16.54;65.38;101231.41;7352040;19;20051;-57
2023/08/06 00:20:10;;;;;;;0.00;0.00;;;;;;;16.49;65.35;101233.38;7346613;19;20489;-56
2023/08/06 00:22:36;;;;;;;0.00;0.00;;;;;;;16.45;64.26;101237.03;7351407;19;20031;-57
2023/08/06 00:25:03;;;;;;;0.00;0.00;;;;;;;16.40;64.07;101239.00;7353382;19;20662;-56
2023/08/06 00:27:28;;;;;;;0.08;0.08;;;;;;;16.31;64.98;101230.50;7351606;19;20672;-56
2023/08/06 00:29:54;;;;;;;0.00;0.00;;;;;;;16.29;65.33;101237.63;7347343;19;20017;-55
2023/08/06 00:32:20;;;;;;;0.00;0.00;;;;;;;16.23;65.39;101232.59;7353200;19;20759;-56
2023/08/06 00:34:45;;;;;;;0.00;0.00;;;;;;;16.10;64.86;101220.78;7353377;19;20387;-55
2023/08/06 00:37:11;;;;;;;0.00;0.00;;;;;;;16.16;65.48;101241.63;7353234;19;20014;-57
2023/08/06 00:39:37;;;;;;;0.10;0.10;;;;;;;16.09;65.31;101235.75;7349410;19;20480;-57
2023/08/06 00:42:02;;;;;;;0.08;0.08;;;;;;;16.07;65.10;101232.31;7346388;19;20818;-57
2023/08/06 00:44:28;;;;;;;0.10;0.10;;;;;;;16.02;64.83;101234.25;7351522;19;20027;-56
2023/08/06 00:46:53;;;;;;;0.00;0.00;;;;;;;15.98;65.01;101237.91;7352133;19;20018;-56
2023/08/06 00:49:19;;;;;;;0.00;0.00;;;;;;;15.95;65.16;101237.16;7351979;19;20010;-57
2023/08/06 00:51:45;;;;;;;0.10;0.10;;;;;;;15.91;65.38;101240.81;7349212;19;20018;-56
2023/08/06 00:54:11;;;;;;;0.00;0.00;;;;;;;15.86;65.19;101248.88;7348387;19;20052;-57
2023/08/06 00:56:37;;;;;;;0.00;0.00;;;;;;;15.81;63.91;101243.81;7348687;19;20727;-57
2023/08/06 00:59:04;;;;;;;0.08;0.08;;;;;;;15.79;65.06;101248.25;7351721;19;20022;-56
2023/08/06 01:01:30;;;;;;;0.10;0.10;;;;;;;15.74;65.19;101242.28;7353639;19;20859;-58
2023/08/06 01:03:56;;;;;;;0.10;0.10;;;;;;;15.56;65.03;101213.91;7349061;19;20015;-57
2023/08/06 01:06:48;;;;;;;0.00;0.00;;;;;;;15.65;64.52;101232.06;7353384;19;20628;-57
2023/08/06 01:09:31;;;;;;;0.00;0.00;;;;;;;15.64;63.85;101243.53;7353258;19;20407;-54
2023/08/06 01:12:01;;;;;;;0.10;0.10;;;;;;;15.58;64.08;101244.56;7352130;19;20020;-56
2023/08/06 01:14:56;;;;;;;0.00;0.00;;;;;;;15.51;63.66;101239.53;7352721;19;20011;-57
2023/08/06 01:17:23;;;;;;;0.00;0.00;;;;;;;15.50;64.84;101243.94;7248956;19;2004573;-56
2023/08/06 01:19:49;;;;;;;0.08;0.08;;;;;;;15.47;64.43;101245.84;7351049;19;20027;-57
2023/08/06 01:22:14;;;;;;;0.00;0.00;;;;;;;15.40;64.48;101233.78;7353351;19;20081;-55
2023/08/06 01:24:46;;;;;;;0.03;0.03;;;;;;;15.40;64.69;101241.69;7344538;19;20086;-57
2023/08/06 01:27:24;;;;;;;0.00;0.00;;;;;;;15.36;64.59;101242.69;7348933;19;20842;-56
2023/08/06 01:29:59;;;;;;;0.08;0.08;;;;;;;15.32;64.87;101252.50;7346458;19;20857;-57
2023/08/06 01:32:25;;;;;;;0.10;0.10;;;;;;;15.14;64.82;101222.38;7350517;19;20018;-57
2023/08/06 01:34:54;;;;;;;0.00;0.00;;;;;;;15.23;65.02;101245.75;7347956;19;20050;-56
2023/08/06 01:37:19;;;;;;;0.00;0.00;;;;;;;15.21;65.60;101252.00;7352104;19;20007;-58
2023/08/06 01:39:45;;;;;;;0.00;0.00;;;;;;;15.16;65.61;101246.88;7352810;19;20018;-57
2023/08/06 01:42:11;;;;;;;0.10;0.10;;;;;;;15.16;65.33;101252.16;7350593;19;20018;-57
2023/08/06 01:44:36;;;;;;;0.00;0.00;;;;;;;15.07;65.33;101247.19;7350855;19;20012;-56
2023/08/06 01:47:01;;;;;;;0.10;0.10;;;;;;;15.10;65.21;101257.59;7351286;19;20474;-56
2023/08/06 01:49:27;;;;;;;0.10;0.10;;;;;;;15.09;65.18;101266.38;7341714;19;20546;-57
2023/08/06 01:51:52;;;;;;;0.10;0.10;;;;;;;15.06;65.51;101258.63;7349903;19;20021;-55
2023/08/06 01:54:18;;;;;;;0.00;0.00;;;;;;;15.03;66.15;101266.59;7358682;19;20021;-57
2023/08/06 01:56:43;;;;;;;0.10;0.10;;;;;;;15.00;65.09;101271.94;7352355;19;20023;-56
2023/08/06 01:59:08;;;;;;;0.00;0.00;;;;;;;14.94;65.88;101269.50;7356630;19;20019;-56
2023/08/06 02:01:34;;;;;;;0.03;0.03;;;;;;;14.96;66.03;101270.34;7355184;19;20021;-57
2023/08/06 02:04:00;;;;;;;0.00;0.00;;;;;;;14.93;65.47;101267.81;7348300;19;20006;-56
2023/08/06 02:06:25;;;;;;;0.00;0.00;;;;;;;14.89;65.70;101264.41;7348650;19;20022;-56
2023/08/06 02:08:50;;;;;;;0.00;0.00;;;;;;;14.87;65.19;101270.63;7359720;19;20010;-57
2023/08/06 02:11:16;;;;;;;0.00;0.00;;;;;;;14.84;65.25;101271.56;7356584;19;20470;-58
2023/08/06 02:13:41;;;;;;;0.00;0.00;;;;;;;14.80;66.12;101269.97;7359386;19;20073;-57
2023/08/06 02:16:08;;;;;;;0.00;0.00;;;;;;;14.78;64.92;101271.75;7359255;19;20022;-57
2023/08/06 02:18:33;;;;;;;0.00;0.00;;;;;;;14.74;65.29;101280.66;7358381;19;20574;-56
2023/08/06 02:20:59;;;;;;;0.00;0.00;;;;;;;14.52;65.47;101244.50;7357703;19;20437;-57
2023/08/06 02:23:25;;;;;;;0.10;0.10;;;;;;;14.68;66.28;101272.97;7358543;19;20090;-58
2023/08/06 02:26:04;;;;;;;0.00;0.00;;;;;;;14.68;65.40;101270.31;7355313;19;20836;-56
2023/08/06 02:28:30;;;;;;;0.00;0.00;;;;;;;14.63;66.17;101273.09;7355952;19;20452;-57
2023/08/06 02:30:56;;;;;;;0.00;0.00;;;;;;;14.47;66.11;101240.28;7361146;19;21326;-57
2023/08/06 02:33:22;;;;;;;0.00;0.00;;;;;;;14.60;66.37;101264.44;7357962;19;20038;-55
2023/08/06 02:35:47;;;;;;;0.00;0.00;;;;;;;14.58;66.30;101261.84;7357147;19;20007;-57
2023/08/06 02:38:12;;;;;;;0.00;0.00;;;;;;;14.51;66.11;101255.09;7349058;19;20014;-58
2023/08/06 02:40:45;;;;;;;0.10;0.10;;;;;;;14.58;66.00;101264.47;7359584;19;20007;-57
2023/08/06 02:43:10;;;;;;;0.10;0.10;;;;;;;14.56;66.38;101265.47;7357987;19;20010;-56
2023/08/06 02:45:35;;;;;;;0.00;0.00;;;;;;;14.56;66.10;101271.56;7359569;19;20036;-57
2023/08/06 02:48:02;;;;;;;0.10;0.10;;;;;;;14.54;66.20;101262.84;7358656;19;20016;-56
2023/08/06 02:50:27;;;;;;;0.00;0.00;;;;;;;14.57;66.50;101272.44;7359389;19;20049;-55
2023/08/06 02:52:53;;;;;;;0.00;0.00;;;;;;;14.58;66.24;101268.88;7354677;19;20011;-57
2023/08/06 02:55:18;;;;;;;0.00;0.00;;;;;;;14.59;66.44;101270.59;7353992;19;20010;-57
2023/08/06 02:57:43;;;;;;;0.00;0.00;;;;;;;14.59;66.57;101266.19;7358056;19;20010;-58
2023/08/06 03:00:11;;;;;;;0.10;0.10;;;;;;;14.59;66.51;101260.09;7358067;19;20022;-56
2023/08/06 03:02:36;;;;;;;;;;;;;;;14.62;64.75;101260.88;7358931;19;20447;-56
2023/08/06 03:05:03;;;;;;;0.00;0.00;;;;;;;14.62;66.30;101263.50;7349075;19;19915;-57
2023/08/06 03:07:28;;;;;;;0.10;0.10;;;;;;;14.61;66.50;101259.16;7357284;19;20011;-57
2023/08/06 03:09:54;;;;;;;0.00;0.00;;;;;;;14.62;66.32;101266.13;7359115;19;20043;-57
2023/08/06 03:12:19;;;;;;;0.00;0.00;;;;;;;14.50;66.46;101245.47;7356794;19;20010;-58
2023/08/06 03:14:45;;;;;;;0.10;0.10;;;;;;;14.52;67.10;101255.03;7355854;19;20024;-56
2023/08/06 03:17:10;;;;;;;0.00;0.00;;;;;;;14.57;66.72;101262.78;7356785;19;20010;-57
2023/08/06 03:19:36;;;;;;;0.10;0.10;;;;;;;14.58;66.81;101256.59;7332901;19;20015;-57
2023/08/06 03:22:01;;;;;;;0.00;0.00;;;;;;;14.56;66.95;101255.81;7350149;19;20376;-57
2023/08/06 03:24:27;;;;;;;0.00;0.00;;;;;;;14.54;67.11;101252.34;7351436;19;20010;-57
2023/08/06 03:26:52;;;;;;;0.00;0.00;;;;;;;14.52;66.98;101255.03;7348344;19;20010;-56
2023/08/06 03:29:17;;;;;;;0.00;0.00;;;;;;;14.50;66.58;101256.84;7355764;19;20018;-55
2023/08/06 03:31:43;;;;;;;0.00;0.00;;;;;;;14.48;66.83;101263.03;7352127;19;20497;-55
2023/08/06 03:34:08;;;;;;;0.10;0.10;;;;;;;14.45;66.79;101268.38;7352492;19;20002;-55
2023/08/06 03:36:33;;;;;;;0.00;0.00;;;;;;;14.42;67.09;101278.97;7352673;19;20014;-57
2023/08/06 03:38:59;;;;;;;0.00;0.00;;;;;;;14.35;67.36;101272.19;7349080;19;20035;-58
2023/08/06 03:41:24;;;;;;;0.00;0.00;;;;;;;14.35;66.79;101270.41;7357229;19;20002;-57
2023/08/06 03:43:50;;;;;;;0.08;0.08;;;;;;;14.33;67.27;101266.09;7355646;19;20114;-57
2023/08/06 03:46:15;;;;;;;0.05;0.05;;;;;;;14.31;67.28;101274.03;7355551;19;20006;-58
2023/08/06 03:48:40;;;;;;;0.00;0.00;;;;;;;14.28;67.33;101259.19;7353450;19;20030;-58
2023/08/06 03:51:06;;;;;;;0.10;0.10;;;;;;;14.26;66.90;101260.16;7354843;19;21163;-56
2023/08/06 03:53:31;;;;;;;0.00;0.00;;;;;;;14.25;67.29;101259.31;7351278;19;20010;-57
2023/08/06 03:55:59;;;;;;;0.00;0.00;;;;;;;14.24;66.96;101260.22;7356009;19;20010;-57
2023/08/06 03:58:25;;;;;;;0.00;0.00;;;;;;;14.22;66.89;101261.16;7353115;19;20042;-56
2023/08/06 04:00:58;;;;;;;0.00;0.00;;;;;;;14.21;66.48;101262.06;7353784;19;20033;-57
2023/08/06 04:03:24;;;;;;;0.10;0.10;;;;;;;14.18;67.38;101270.88;7350857;19;20028;-55
2023/08/06 04:05:49;;;;;;;0.00;0.00;;;;;;;14.17;67.64;101263.03;7356957;19;20510;-57
2023/08/06 04:08:14;;;;;;;0.10;0.10;;;;;;;14.15;67.76;101270.97;7348722;19;20006;-56
2023/08/06 04:10:40;;;;;;;0.05;0.05;;;;;;;14.14;67.28;101269.25;7353388;19;20014;-57
2023/08/06 04:13:05;;;;;;;0.00;0.00;;;;;;;14.09;67.92;101260.66;7349128;19;20577;-57
2023/08/06 04:15:33;;;;;;;0.00;0.00;;;;;;;14.09;67.32;101254.50;7354204;19;20015;-56
2023/08/06 04:17:59;;;;;;;0.10;0.10;;;;;;;14.12;68.16;101263.19;7348168;19;20021;-56
2023/08/06 04:20:25;;;;;;;0.00;0.00;;;;;;;14.00;67.64;101246.00;7346637;19;20015;-55
2023/08/06 04:22:50;;;;;;;0.00;0.00;;;;;;;14.12;67.76;101265.81;7351659;19;20023;-55
2023/08/06 04:25:20;;;;;;;0.05;0.05;;;;;;;14.11;67.51;101268.47;7352616;19;20011;-57
2023/08/06 04:27:46;;;;;;;0.05;0.05;;;;;;;14.08;67.79;101272.03;7350827;19;20021;-53
2023/08/06 04:30:12;;;;;;;0.00;0.00;;;;;;;14.06;67.62;101273.84;7351556;19;25265;-56
2023/08/06 04:32:37;;;;;;;0.00;0.00;;;;;;;14.02;67.57;101280.09;7350189;19;20010;-56
2023/08/06 04:35:03;;;;;;;0.00;0.00;;;;;;;13.91;67.50;101255.91;7353392;19;21728;-56
2023/08/06 04:37:29;;;;;;;0.10;0.10;;;;;;;13.99;67.63;101274.94;7352189;19;20003;-56
2023/08/06 04:39:54;;;;;;;0.00;0.00;;;;;;;13.97;68.03;101276.72;7354346;19;20006;-57
2023/08/06 04:42:19;;;;;;;0.00;0.00;;;;;;;13.92;67.64;101274.22;7354070;19;20031;-57
2023/08/06 04:44:45;;;;;;;0.10;0.10;;;;;;;13.90;67.46;101285.69;7351592;19;20006;-58
2023/08/06 04:47:10;;;;;;;0.00;0.00;;;;;;;13.87;67.63;101285.75;7355150;19;20010;-58
2023/08/06 04:49:36;;;;;;;0.00;0.00;;;;;;;13.83;67.37;101284.13;7351482;19;20508;-55
2023/08/06 04:52:01;;;;;;;0.00;0.00;;;;;;;13.80;67.41;101281.59;7355596;19;20011;-56
2023/08/06 04:54:26;;;;;;;0.00;0.00;;;;;;;13.77;67.61;101291.25;7352526;19;20022;-55
2023/08/06 04:56:52;;;;;;;0.00;0.00;;;;;;;13.74;67.77;101286.09;7352756;19;20010;-57
2023/08/06 04:59:17;;;;;;;0.00;0.00;;;;;;;13.71;67.73;101296.66;7349674;19;20014;-57
2023/08/06 05:01:43;;;;;;;0.08;0.08;;;;;;;13.69;67.42;101298.50;7354634;19;20035;-57
2023/08/06 05:04:08;;;;;;;0.00;0.00;;;;;;;13.65;67.56;101296.84;7348069;19;20461;-57
2023/08/06 05:06:33;;;;;;;0.00;0.00;;;;;;;13.64;67.83;101300.38;7347735;19;20015;-57
2023/08/06 05:08:59;;;;;;;0.00;0.00;;;;;;;13.51;67.84;101288.44;7351576;19;20644;-56
2023/08/06 05:11:24;;;;;;;0.00;0.00;;;;;;;13.44;67.60;101282.50;7354471;19;20014;-57
2023/08/06 05:13:50;;;;;;;0.10;0.10;;;;;;;13.41;67.59;101289.59;7349779;19;20085;-57
2023/08/06 05:16:15;;;;;;;0.00;0.00;;;;;;;13.50;67.94;101302.47;7351402;19;20904;-56
2023/08/06 05:18:41;;;;;;;0.00;0.00;;;;;;;13.47;68.04;101302.53;7349828;19;20014;-57
2023/08/06 05:21:07;;;;;;;0.10;0.10;;;;;;;13.45;68.10;101306.97;7355045;19;20012;-57
2023/08/06 05:23:32;;;;;;;0.00;0.00;;;;;;;13.44;68.19;101302.63;7350675;19;21382;-57
2023/08/06 05:25:58;;;;;;;0.10;0.10;;;;;;;13.42;68.13;101309.66;7353788;19;20784;-57
2023/08/06 05:28:23;;;;;;;0.03;0.03;;;;;;;13.35;68.02;101302.84;7348458;19;21466;-57
2023/08/06 05:30:48;;;;;;;0.00;0.00;;;;;;;13.40;68.53;101308.84;7350553;19;20125;-57
2023/08/06 05:33:14;;;;;;;0.10;0.10;;;;;;;13.39;68.61;101304.50;7348086;19;20018;-57
2023/08/06 05:35:42;;;;;;;0.10;0.10;;;;;;;13.40;68.01;101311.47;7352469;19;20002;-56
2023/08/06 05:38:07;;;;;;;;;;;;;;;13.41;66.21;101314.06;7352026;19;20038;-56
2023/08/06 05:40:35;;;;;;;0.00;0.00;;;;;;;13.30;67.73;101299.50;7354722;19;20679;-55
2023/08/06 05:43:01;;;;;;;0.00;0.00;;;;;;;13.36;68.43;101313.31;7352080;19;20018;-57
2023/08/06 05:45:26;;;;;;;0.00;0.00;;;;;;;13.36;68.29;101317.69;7348793;19;20387;-57
2023/08/06 05:47:53;;;;;;;0.00;0.00;;;;;;;13.33;68.40;101316.03;7351549;19;20014;-57
2023/08/06 05:50:19;;;;;;;0.00;0.00;;;;;;;13.32;68.95;101318.66;7350698;19;20040;-56
2023/08/06 05:52:44;;;;;;;0.03;0.03;;;;;;;13.31;69.17;101320.41;7351695;19;20343;-56
2023/08/06 05:55:10;;;;;;;0.00;0.00;;;;;;;13.31;69.02;101324.81;7351563;19;20114;-57
2023/08/06 05:57:35;;;;;;;0.03;0.03;;;;;;;13.27;69.15;101325.78;7347977;19;20573;-56
2023/08/06 06:00:01;;;;;;;0.00;0.00;;;;;;;13.33;69.36;101336.13;7350577;19;20617;-57
2023/08/06 06:02:27;;;;;;;0.00;0.00;;;;;;;13.36;69.13;101336.06;7351715;19;20835;-56
2023/08/06 06:04:52;;;;;;;0.00;0.00;;;;;;;13.31;69.30;101332.69;7346907;19;20035;-57
2023/08/06 06:07:18;;;;;;;0.00;0.00;;;;;;;13.40;69.18;101337.72;7351360;19;20040;-56
2023/08/06 06:09:43;;;;;;;0.00;0.00;;;;;;;13.36;69.12;101330.81;7350867;19;20010;-57
2023/08/06 06:12:08;;;;;;;0.00;0.00;;;;;;;13.46;69.05;101342.81;7351557;19;20010;-56
2023/08/06 06:14:34;;;;;;;0.05;0.05;;;;;;;13.44;69.82;101334.13;7350393;19;20477;-56
2023/08/06 06:17:00;;;;;;;0.00;0.00;;;;;;;13.50;69.47;101344.47;7353273;19;20027;-57
2023/08/06 06:19:25;;;;;;;0.00;0.00;;;;;;;13.53;69.83;101352.22;7350106;19;20027;-55
2023/08/06 06:21:51;;;;;;;0.00;0.00;;;;;;;13.50;69.48;101336.59;7349140;19;20023;-55
2023/08/06 06:24:16;;;;;;;0.00;0.00;;;;;;;13.59;69.55;101352.09;7345427;19;20021;-57
2023/08/06 06:26:41;;;;;;;0.00;0.00;;;;;;;13.64;69.80;101345.00;7353397;19;20038;-55
2023/08/06 06:29:07;;;;;;;0.00;0.00;;;;;;;13.69;69.59;101340.47;7351334;19;20010;-57
2023/08/06 06:31:32;;;;;;;0.10;0.10;;;;;;;13.76;70.05;101351.69;7352777;19;20011;-57
2023/08/06 06:33:58;;;;;;;0.00;0.00;;;;;;;13.83;69.91;101347.13;7351099;19;20019;-56
2023/08/06 06:36:23;;;;;;;0.10;0.10;;;;;;;13.89;69.91;101347.84;7353262;19;20047;-57
2023/08/06 06:38:49;;;;;;;0.00;0.00;;;;;;;13.97;70.19;101350.25;7353967;19;20025;-57
2023/08/06 06:41:14;;;;;;;0.00;0.00;;;;;;;14.06;70.02;101363.16;7358295;19;20010;-57
2023/08/06 06:43:40;;;;;;;0.00;0.00;;;;;;;14.13;69.89;101362.06;7357059;19;20805;-56
2023/08/06 06:46:06;;;;;;;0.10;0.10;;;;;;;14.21;69.75;101364.50;7358151;19;20034;-57
2023/08/06 06:48:32;;;;;;;0.00;0.00;;;;;;;14.27;70.04;101365.19;7358005;19;20050;-56
2023/08/06 06:50:58;;;;;;;0.10;0.10;;;;;;;14.34;69.87;101359.75;7357366;19;20011;-57
2023/08/06 06:53:27;;;;;;;0.00;0.00;;;;;;;14.34;70.00;101351.88;7358578;19;20428;-56
2023/08/06 06:55:56;;;;;;;0.08;0.08;;;;;;;14.48;69.96;101357.66;7359941;19;20002;-57
2023/08/06 06:58:21;;;;;;;0.00;0.00;;;;;;;14.53;69.93;101366.25;7352399;19;20014;-57
2023/08/06 07:00:48;;;;;;;0.00;0.00;;;;;;;14.60;69.64;101362.56;7359145;19;20010;-55
2023/08/06 07:03:14;;;;;;;0.08;0.08;;;;;;;14.65;69.95;101363.31;7356466;19;20002;-57
2023/08/06 07:05:40;;;;;;;0.00;0.00;;;;;;;14.70;69.42;101358.78;7358828;19;20816;-57
2023/08/06 07:08:05;;;;;;;0.10;0.10;;;;;;;14.76;69.59;101357.72;7356495;19;20014;-56
2023/08/06 07:10:31;;;;;;;0.00;0.00;;;;;;;14.81;69.45;101358.44;7360965;19;20043;-55
2023/08/06 07:12:56;;;;;;;0.10;0.10;;;;;;;14.83;69.52;101353.13;7358072;19;20045;-56
2023/08/06 07:15:22;;;;;;;0.03;0.03;;;;;;;14.76;69.75;101336.69;7353499;19;20011;-57
2023/08/06 07:17:47;;;;;;;0.08;0.08;;;;;;;14.93;69.20;101354.59;7359906;19;20006;-58
2023/08/06 07:20:12;;;;;;;0.00;0.00;;;;;;;14.99;69.75;101359.66;7355769;19;20042;-57
2023/08/06 07:22:38;;;;;;;0.08;0.08;;;;;;;15.03;69.56;101350.75;7352407;19;20037;-57
2023/08/06 07:25:03;;;;;;;0.08;0.08;;;;;;;15.07;69.78;101360.28;7357761;19;20680;-58
2023/08/06 07:27:29;;;;;;;0.10;0.10;;;;;;;15.12;69.54;101350.47;7352076;19;20020;-57
2023/08/06 07:29:54;;;;;;;0.00;0.00;;;;;;;15.13;69.96;101352.19;7355404;19;20364;-56
2023/08/06 07:32:20;;;;;;;0.00;0.00;;;;;;;15.20;69.91;101348.44;7354689;19;20010;-57
2023/08/06 07:34:45;;;;;;;0.00;0.00;;;;;;;15.28;69.72;101351.72;7356246;19;20025;-58
2023/08/06 07:37:10;;;;;;;0.10;0.10;;;;;;;15.34;70.05;101352.44;7358653;19;20108;-56
2023/08/06 07:39:37;;;;;;;0.00;0.00;;;;;;;15.41;69.76;101351.31;7352734;19;20015;-57
2023/08/06 07:42:05;;;;;;;0.10;0.10;;;;;;;15.50;70.11;101351.88;7338474;19;20002;-56
2023/08/06 07:44:31;;;;;;;0.00;0.00;;;;;;;15.60;70.30;101356.84;7354796;19;20526;-57
2023/08/06 07:46:56;;;;;;;0.00;0.00;;;;;;;15.68;69.85;101355.72;7356614;19;20012;-56
2023/08/06 07:49:21;;;;;;;0.10;0.10;;;;;;;15.78;70.44;101356.28;7357619;19;20002;-57
2023/08/06 07:51:47;;;;;;;0.10;0.10;;;;;;;15.90;69.91;101360.25;7331109;19;20066;-58
2023/08/06 07:54:12;;;;;;;0.00;0.00;;;;;;;16.01;69.69;101358.09;7356662;19;20017;-57
2023/08/06 07:56:38;;;;;;;0.10;0.10;;;;;;;16.13;69.83;101362.09;7354049;19;20013;-57
2023/08/06 07:59:03;;;;;;;0.10;0.10;;;;;;;16.22;69.93;101352.09;7354546;19;20497;-56
2023/08/06 08:01:29;;;;;;;0.08;0.08;;;;;;;16.33;69.56;101363.13;7349043;19;20018;-56
2023/08/06 08:03:54;;;;;;;0.10;0.10;;;;;;;16.44;69.74;101349.53;7353922;19;20006;-57
2023/08/06 08:06:19;;;;;;;0.00;0.00;;;;;;;16.54;69.47;101347.44;7356507;19;20050;-55
2023/08/06 08:08:45;;;;;;;0.10;0.10;;;;;;;16.64;69.13;101354.06;7353542;19;20006;-58
2023/08/06 08:11:10;;;;;;;0.00;0.00;;;;;;;16.74;69.01;101349.34;7357941;19;20018;-57
2023/08/06 08:13:36;;;;;;;0.10;0.10;;;;;;;16.81;68.76;101361.38;7352151;19;20006;-58
2023/08/06 08:16:02;;;;;;;0.00;0.00;;;;;;;16.86;68.41;101355.00;7357826;19;20011;-57
2023/08/06 08:18:27;;;;;;;0.03;0.03;;;;;;;16.90;68.16;101366.31;7354007;19;20420;-57
2023/08/06 08:20:53;;;;;;;0.08;0.08;;;;;;;16.95;67.97;101352.94;7359721;19;20035;-56
2023/08/06 08:23:18;;;;;;;0.00;0.00;;;;;;;17.00;67.96;101356.25;7351155;19;20038;-56
2023/08/06 08:25:43;;;;;;;0.10;0.10;;;;;;;17.06;68.17;101348.09;7356852;19;20019;-57
2023/08/06 08:28:09;;;;;;;0.10;0.10;;;;;;;17.12;67.91;101350.50;7356496;19;20003;-56
2023/08/06 08:30:34;;;;;;;0.00;0.00;;;;;;;17.20;68.36;101356.34;7354101;19;20098;-57
2023/08/06 08:33:00;;;;;;;0.00;0.00;;;;;;;17.28;67.78;101353.38;7355767;19;20032;-57
2023/08/06 08:35:25;;;;;;;0.00;0.00;;;;;;;17.37;68.07;101345.94;7356831;19;20014;-57
2023/08/06 08:37:51;;;;;;;0.10;0.10;;;;;;;17.46;67.87;101355.28;7354470;19;20010;-57
2023/08/06 08:40:17;;;;;;;0.10;0.10;;;;;;;17.53;67.89;101354.09;7352556;19;20743;-57
2023/08/06 08:42:43;;;;;;;0.00;0.00;;;;;;;17.62;67.78;101350.22;7355659;19;20010;-56
2023/08/06 08:45:13;;;;;;;0.00;0.00;;;;;;;17.66;67.93;101340.41;7353286;19;20025;-57
2023/08/06 08:47:41;;;;;;;0.10;0.10;;;;;;;17.85;67.57;101357.22;7353223;19;20014;-57
2023/08/06 08:50:07;;;;;;;;;;;;;;;18.04;66.97;101362.56;7356142;19;20022;-57
2023/08/06 08:52:35;;;;;;;0.10;0.10;;;;;;;18.06;67.15;101356.31;7346860;19;19922;-58
2023/08/06 08:55:01;;;;;;;0.08;0.08;;;;;;;18.16;66.92;101362.03;7351701;19;20024;-57
2023/08/06 08:57:27;;;;;;;0.10;0.10;;;;;;;18.22;65.92;101361.78;7354041;19;20478;-58
2023/08/06 08:59:52;;;;;;;0.10;0.10;;;;;;;18.14;66.04;101342.72;7350951;19;20010;-58
2023/08/06 09:02:21;;;;;;;0.10;0.10;;;;;;;18.28;65.72;101372.06;7353464;19;20010;-56
2023/08/06 09:04:48;;;;;;;0.10;0.10;;;;;;;18.30;65.67;101366.75;7355100;19;20014;-58
2023/08/06 09:07:17;;;;;;;0.05;0.05;;;;;;;18.40;65.85;101360.97;7354563;19;20026;-57
2023/08/06 09:09:46;;;;;;;0.10;0.10;;;;;;;18.46;65.97;101358.97;7352764;19;20007;-56
2023/08/06 09:12:14;;;;;;;0.10;0.10;;;;;;;18.59;65.56;101360.13;7354268;19;20007;-55
2023/08/06 09:14:40;;;;;;;0.10;0.10;;;;;;;18.66;65.66;101356.28;7349313;19;20098;-57
2023/08/06 09:17:06;;;;;;;0.10;0.10;;;;;;;18.77;65.10;101359.31;7351855;19;20759;-54
2023/08/06 09:19:32;;;;;;;0.10;0.10;;;;;;;18.89;65.01;101356.09;7348125;19;20010;-56
2023/08/06 09:21:59;;;;;;;0.08;0.08;;;;;;;19.10;64.93;101358.66;7352966;19;20019;-57
2023/08/06 09:24:26;;;;;;;0.05;0.05;;;;;;;19.24;64.87;101360.63;7356468;19;20886;-57
2023/08/06 09:26:51;;;;;;;0.10;0.10;;;;;;;19.41;64.35;101356.25;7351657;19;20010;-55
2023/08/06 09:29:17;;;;;;;0.10;0.10;;;;;;;19.59;64.25;101353.63;7347914;19;20054;-58
2023/08/06 09:31:44;;;;;;;0.10;0.10;;;;;;;19.76;64.13;101355.44;7352824;19;20022;-56
2023/08/06 09:34:21;;;;;;;0.10;0.10;;;;;;;19.98;63.52;101364.03;7352333;19;20052;-57
2023/08/06 09:36:49;;;;;;;0.10;0.10;;;;;;;20.07;63.21;101365.31;7352372;19;20108;-56
2023/08/06 09:39:15;;;;;;;0.10;0.10;;;;;;;20.24;62.69;101367.97;7352820;19;20062;-58
2023/08/06 09:41:41;;;;;;;0.10;0.10;;;;;;;20.46;62.19;101373.88;7351621;19;20785;-57
2023/08/06 09:44:19;;;;;;;0.10;0.10;;;;;;;20.69;62.74;101363.84;7352036;19;20736;-57
2023/08/06 09:46:56;;;;;;;0.10;0.10;;;;;;;20.92;62.01;101366.06;7355544;19;20473;-56
2023/08/06 09:49:45;;;;;;;0.10;0.10;;;;;;;21.13;62.34;101358.72;7353089;19;20522;-58
2023/08/06 09:52:15;;;;;;;0.10;0.10;;;;;;;21.27;60.84;101365.91;7353006;19;20034;-57
2023/08/06 09:54:43;;;;;;;0.03;0.03;;;;;;;21.45;60.61;101359.59;7350232;19;20366;-57
2023/08/06 09:57:09;;;;;;;0.10;0.10;;;;;;;21.63;60.16;101367.41;7349548;19;20085;-55
2023/08/06 09:59:36;;;;;;;0.10;0.10;;;;;;;21.90;60.38;101365.81;7352447;19;20491;-56
2023/08/06 10:02:06;;;;;;;0.10;0.10;;;;;;;22.21;58.95;101370.16;7345683;19;20494;-57
2023/08/06 10:04:32;;;;;;;0.10;0.10;;;;;;;22.53;59.37;101360.19;7354201;19;20093;-57
2023/08/06 10:06:59;;;;;;;0.10;0.10;;;;;;;22.92;59.45;101372.00;7349438;19;20136;-57
2023/08/06 10:09:24;;;;;;;0.10;0.10;;;;;;;23.33;58.60;101365.78;7353922;19;21124;-59
2023/08/06 10:11:52;;;;;;;0.10;0.10;;;;;;;23.75;58.08;101372.78;7347938;19;20029;-56
2023/08/06 10:14:37;;;;;;;0.10;0.10;;;;;;;24.26;58.55;101382.66;7355419;19;20014;-57
2023/08/06 10:17:03;;;;;;;0.10;0.10;;;;;;;24.46;55.39;101379.47;7358582;19;20946;-57
2023/08/06 10:19:30;;;;;;;0.10;0.10;;;;;;;24.70;54.22;101366.22;7352798;19;20082;-57
2023/08/06 10:22:16;;;;;;;0.10;0.10;;;;;;;25.12;58.14;101365.91;7356505;19;19998;-57
2023/08/06 10:25:04;;;;;;;0.10;0.10;;;;;;;25.42;57.59;101363.66;7356664;19;20557;-58
2023/08/06 10:27:53;;;;;;;0.10;0.10;;;;;;;25.65;55.83;101358.38;7356871;19;20467;-57
2023/08/06 10:30:32;;;;;;;0.10;0.10;;;;;;;26.09;54.21;101369.25;7345899;19;20013;-57
2023/08/06 10:33:02;;;;;;;0.10;0.10;;;;;;;26.37;52.72;101367.09;7349643;19;20017;-57
2023/08/06 10:35:40;;;;;;;0.10;0.10;;;;;;;26.69;52.84;101361.03;7357083;19;20607;-57
2023/08/06 10:38:10;;;;;;;0.10;0.10;;;;;;;27.00;51.60;101368.28;7358452;19;20422;-58
2023/08/06 10:40:56;;;;;;;0.00;0.00;;;;;;;27.45;53.01;101370.88;7359097;19;20007;-57
2023/08/06 10:43:31;;;;;;;;;;;;;;;27.87;55.42;101361.06;7359994;19;20729;-58
2023/08/06 10:45:58;;;;;;;0.05;0.05;;;;;;;28.06;46.57;101354.13;7358086;19;19925;-56
2023/08/06 10:48:37;;;;;;;0.00;0.00;;;;;;;28.39;47.82;101372.75;7358386;19;20006;-57
2023/08/06 10:51:04;;;;;;;0.00;0.00;;;;;;;28.40;45.07;101373.59;7355881;19;20027;-56
2023/08/06 10:53:30;;;;;;;0.00;0.00;;;;;;;28.34;45.96;101369.59;7352760;19;20434;-57
2023/08/06 10:55:55;;;;;;;0.10;0.10;;;;;;;28.25;45.67;101364.16;7359820;19;20013;-56
2023/08/06 10:58:21;;;;;;;0.05;0.05;;;;;;;28.09;44.25;101367.31;7357289;19;20467;-54
2023/08/06 11:00:46;;;;;;;0.10;0.10;;;;;;;27.92;43.58;101368.75;7354709;19;21341;-58
2023/08/06 11:03:12;;;;;;;0.10;0.10;;;;;;;27.70;44.43;101368.84;7359106;19;20030;-56
2023/08/06 11:05:37;;;;;;;0.10;0.10;;;;;;;27.48;45.74;101367.97;7358723;19;20027;-58
2023/08/06 11:08:03;;;;;;;0.00;0.00;;;;;;;27.34;46.05;101371.78;7358741;19;20102;-57
2023/08/06 11:10:28;;;;;;;0.00;0.00;;;;;;;27.26;45.06;101365.34;7357262;19;20018;-57
2023/08/06 11:12:54;;;;;;;0.10;0.10;;;;;;;27.27;47.09;101367.03;7347932;19;20018;-58
2023/08/06 11:15:21;;;;;;;0.10;0.10;;;;;;;27.39;47.68;101368.72;7349370;19;20763;-58
2023/08/06 11:17:47;;;;;;;0.08;0.08;;;;;;;27.34;46.50;101317.28;7352765;19;20030;-58
2023/08/06 11:20:12;;;;;;;0.10;0.10;;;;;;;27.96;46.40;101361.28;7355963;19;20006;-57
2023/08/06 11:22:38;;;;;;;0.10;0.10;;;;;;;28.31;44.82;101363.59;7353968;19;20425;-57
2023/08/06 11:25:08;;;;;;;0.10;0.10;;;;;;;28.71;46.34;101352.91;7357237;19;20584;-54